createdAt,value
2022-12-24T00:01:03.069Z,100458.50
2022-12-24T00:03:30.315Z,100460.19
2022-12-24T00:05:57.387Z,100469.13
2022-12-24T00:08:24.627Z,100457.13
2022-12-24T00:10:53.212Z,100454.41
2022-12-24T00:13:21.343Z,100466.22
2022-12-24T00:15:48.756Z,100466.31
2022-12-24T00:18:16.318Z,100471.56
2022-12-24T00:20:47.679Z,100472.56
2022-12-24T00:23:15.827Z,100479.91
2022-12-24T00:25:42.600Z,100472.09
2022-12-24T00:28:09.700Z,100474.09
2022-12-24T00:30:39.282Z,100465.16
2022-12-24T00:33:06.402Z,100477.50
2022-12-24T00:35:37.915Z,100475.16
2022-12-24T00:38:04.893Z,100480.38
2022-12-24T00:40:32.266Z,100482.44
2022-12-24T00:42:59.298Z,100491.72
2022-12-24T00:45:27.979Z,100491.84
2022-12-24T00:47:54.904Z,100494.84
2022-12-24T00:50:21.694Z,100502.38
2022-12-24T00:52:48.885Z,100507.13
2022-12-24T00:55:15.609Z,100501.59
2022-12-24T00:57:42.457Z,100501.50
2022-12-24T01:00:09.926Z,100502.50
2022-12-24T01:02:39.656Z,100498.78
2022-12-24T01:05:14.571Z,100491.19
2022-12-24T01:07:48.218Z,100491.44
2022-12-24T01:10:19.351Z,100513.47
2022-12-24T01:12:47.168Z,100511.84
2022-12-24T01:15:14.670Z,100511.00
2022-12-24T01:17:41.582Z,100507.72
2022-12-24T01:20:14.398Z,100514.25
2022-12-24T01:22:41.120Z,100526.16
2022-12-24T01:25:08.245Z,100529.75
2022-12-24T01:27:35.046Z,100541.22
2022-12-24T01:30:01.842Z,100538.34
2022-12-24T01:32:28.833Z,100542.03
2022-12-24T01:34:55.659Z,100540.38
2022-12-24T01:37:22.484Z,100551.38
2022-12-24T01:39:49.225Z,100549.63
2022-12-24T01:42:40.470Z,100553.31
2022-12-24T01:45:41.689Z,100558.69
2022-12-24T01:48:18.057Z,100549.56
2022-12-24T01:50:45.145Z,100560.63
2022-12-24T01:53:13.627Z,100557.63
2022-12-24T01:55:41.176Z,100554.53
2022-12-24T01:58:09.918Z,100543.06
2022-12-24T02:00:37.592Z,100548.94
2022-12-24T02:03:04.924Z,100562.88
2022-12-24T02:05:51.873Z,100559.97
2022-12-24T02:08:19.024Z,100554.59
2022-12-24T02:10:46.929Z,100563.53
2022-12-24T02:13:15.599Z,100572.53
2022-12-24T02:16:10.367Z,100577.00
2022-12-24T02:18:46.591Z,100576.34
2022-12-24T02:21:37.823Z,100575.94
2022-12-24T02:24:33.163Z,100579.75
2022-12-24T02:27:11.015Z,100574.00
2022-12-24T02:30:05.061Z,100575.97
2022-12-24T02:32:56.914Z,100562.25
2022-12-24T02:35:31.283Z,100576.44
2022-12-24T02:38:03.226Z,100578.44
2022-12-24T02:40:38.580Z,100563.25
2022-12-24T02:43:11.709Z,100575.53
2022-12-24T02:45:40.150Z,100579.13
2022-12-24T02:48:07.073Z,100580.97
2022-12-24T02:50:33.944Z,100577.94
2022-12-24T02:53:00.775Z,100590.28
2022-12-24T02:55:47.750Z,100587.56
2022-12-24T02:59:12.146Z,100593.41
2022-12-24T03:01:45.063Z,100594.16
2022-12-24T03:04:39.518Z,100596.81
2022-12-24T03:07:09.557Z,100598.94
2022-12-24T03:10:02.757Z,100591.75
2022-12-24T03:12:39.919Z,100609.09
2022-12-24T03:15:09.283Z,100607.00
2022-12-24T03:17:37.623Z,100615.19
2022-12-24T03:20:06.470Z,100613.81
2022-12-24T03:22:34.699Z,100620.09
2022-12-24T03:25:01.619Z,100621.94
2022-12-24T03:27:29.716Z,100632.03
2022-12-24T03:29:56.851Z,100623.63
2022-12-24T03:32:25.943Z,100634.75
2022-12-24T03:34:52.739Z,100610.44
2022-12-24T03:37:19.726Z,100611.13
2022-12-24T03:39:46.522Z,100607.72
2022-12-24T03:42:13.558Z,100619.63
2022-12-24T03:44:40.366Z,100611.53
2022-12-24T03:47:08.493Z,100609.22
2022-12-24T03:49:35.407Z,100605.16
2022-12-24T03:52:02.238Z,100606.72
2022-12-24T03:54:29.112Z,100619.91
2022-12-24T03:56:55.810Z,100622.69
2022-12-24T03:59:22.446Z,100625.38
2022-12-24T04:01:49.504Z,100611.53
2022-12-24T04:04:16.546Z,100615.66
2022-12-24T04:06:43.355Z,100624.47
2022-12-24T04:09:10.027Z,100614.63
2022-12-24T04:11:36.874Z,100619.72
2022-12-24T04:14:03.781Z,100615.44
2022-12-24T04:16:30.509Z,100623.16
2022-12-24T04:18:57.219Z,100629.84
2022-12-24T04:21:24.899Z,100629.38
2022-12-24T04:23:52.058Z,100642.47
2022-12-24T04:26:18.994Z,100631.78
2022-12-24T04:28:45.685Z,100640.72
2022-12-24T04:31:15.096Z,100640.75
2022-12-24T04:33:42.062Z,100652.03
2022-12-24T04:36:12.269Z,100654.69
2022-12-24T04:38:39.346Z,100668.13
2022-12-24T04:41:10.740Z,100661.66
2022-12-24T04:43:37.839Z,100671.09
2022-12-24T04:46:16.017Z,100665.16
2022-12-24T04:48:42.882Z,100671.59
2022-12-24T04:51:10.323Z,100650.44
2022-12-24T04:53:38.562Z,100654.72
2022-12-24T04:56:09.344Z,100661.31
2022-12-24T04:58:36.283Z,100662.63
2022-12-24T05:01:08.342Z,100659.75
2022-12-24T05:03:35.965Z,100657.75
2022-12-24T05:06:07.609Z,100682.72
2022-12-24T05:08:35.180Z,100678.94
2022-12-24T05:11:02.768Z,100680.56
2022-12-24T05:13:37.624Z,100687.66
2022-12-24T05:16:09.764Z,100677.28
2022-12-24T05:18:36.774Z,100661.41
2022-12-24T05:21:03.670Z,100663.34
2022-12-24T05:23:49.300Z,100673.69
2022-12-24T05:26:37.437Z,100676.50
2022-12-24T05:29:05.602Z,100671.63
2022-12-24T05:31:33.591Z,100687.38
2022-12-24T05:34:01.464Z,100693.75
2022-12-24T05:36:28.515Z,100696.31
2022-12-24T05:38:55.586Z,100691.28
2022-12-24T05:41:22.670Z,100686.00
2022-12-24T05:43:49.648Z,100701.56
2022-12-24T05:46:19.176Z,100688.19
2022-12-24T05:48:46.706Z,100684.22
2022-12-24T05:51:15.368Z,100683.44
2022-12-24T05:53:42.174Z,100692.13
2022-12-24T05:56:11.393Z,100692.75
2022-12-24T05:58:41.674Z,100709.28
2022-12-24T06:01:09.201Z,100711.69
2022-12-24T06:03:36.199Z,100706.09
2022-12-24T06:06:11.911Z,100703.06
2022-12-24T06:08:39.550Z,100704.19
2022-12-24T06:11:09.560Z,100718.34
2022-12-24T06:13:37.242Z,100713.31
2022-12-24T06:16:06.402Z,100733.50
2022-12-24T06:18:34.703Z,100733.44
2022-12-24T06:21:01.513Z,100728.19
2022-12-24T06:23:33.781Z,100729.13
2022-12-24T06:26:01.177Z,100723.41
2022-12-24T06:28:29.356Z,100727.59
2022-12-24T06:31:02.393Z,100728.94
2022-12-24T06:33:30.207Z,100728.34
2022-12-24T06:35:56.902Z,100735.84
2022-12-24T06:38:23.633Z,100733.19
2022-12-24T06:40:50.428Z,100728.72
2022-12-24T06:43:17.329Z,100725.81
2022-12-24T06:45:48.573Z,100732.16
2022-12-24T06:48:15.826Z,100738.19
2022-12-24T06:50:43.134Z,100738.63
2022-12-24T06:53:10.116Z,100728.44
2022-12-24T06:55:36.869Z,100734.31
2022-12-24T06:58:04.273Z,100757.53
2022-12-24T07:00:31.043Z,100742.69
2022-12-24T07:02:58.335Z,100741.44
2022-12-24T07:05:25.298Z,100751.50
2022-12-24T07:07:52.061Z,100760.69
2022-12-24T07:10:19.745Z,100753.41
2022-12-24T07:12:47.656Z,100762.75
2022-12-24T07:15:14.477Z,100758.91
2022-12-24T07:17:45.407Z,100763.56
2022-12-24T07:20:15.050Z,100774.41
2022-12-24T07:22:42.841Z,100770.78
2022-12-24T07:25:10.284Z,100777.66
2022-12-24T07:27:37.298Z,100784.19
2022-12-24T07:30:05.003Z,100785.78
2022-12-24T07:32:32.087Z,100778.22
2022-12-24T07:34:58.935Z,100779.03
2022-12-24T07:37:25.780Z,100786.06
2022-12-24T07:39:52.912Z,100791.13
2022-12-24T07:42:20.581Z,100793.44
2022-12-24T07:44:47.587Z,100786.91
2022-12-24T07:47:14.364Z,100789.72
2022-12-24T07:49:41.192Z,100792.19
2022-12-24T07:52:08.287Z,100806.56
2022-12-24T07:54:35.271Z,100794.00
2022-12-24T07:57:02.120Z,100798.94
2022-12-24T07:59:28.867Z,100810.25
2022-12-24T08:01:56.042Z,100808.28
2022-12-24T08:04:22.792Z,100814.25
2022-12-24T08:06:49.476Z,100827.31
2022-12-24T08:09:16.230Z,100826.81
2022-12-24T08:11:48.123Z,100828.53
2022-12-24T08:14:18.245Z,100834.63
2022-12-24T08:16:44.968Z,100839.69
2022-12-24T08:19:12.009Z,100834.13
2022-12-24T08:21:38.916Z,100842.31
2022-12-24T08:24:06.432Z,100836.22
2022-12-24T08:26:33.256Z,100844.69
2022-12-24T08:29:00.048Z,100838.13
2022-12-24T08:31:26.864Z,100855.34
2022-12-24T08:33:53.717Z,100848.69
2022-12-24T08:36:20.468Z,100858.56
2022-12-24T08:38:47.291Z,100847.72
2022-12-24T08:41:13.965Z,100843.44
2022-12-24T08:43:40.839Z,100843.56
2022-12-24T08:46:07.745Z,100856.50
2022-12-24T08:48:35.292Z,100859.59
2022-12-24T08:51:07.677Z,100866.31
2022-12-24T08:53:34.833Z,100864.81
2022-12-24T08:56:07.395Z,100871.50
2022-12-24T08:58:34.418Z,100884.25
2022-12-24T09:01:01.736Z,100883.06
2022-12-24T09:03:29.257Z,100895.25
2022-12-24T09:05:56.274Z,100890.84
2022-12-24T09:08:23.127Z,100895.50
2022-12-24T09:10:49.861Z,100903.91
2022-12-24T09:13:16.669Z,100892.75
2022-12-24T09:15:43.479Z,100905.38
2022-12-24T09:18:10.872Z,100909.84
2022-12-24T09:20:41.485Z,100916.16
2022-12-24T09:23:11.021Z,100924.91
2022-12-24T09:25:45.319Z,100915.16
2022-12-24T09:28:12.156Z,100924.66
2022-12-24T09:30:38.792Z,100947.28
2022-12-24T09:33:05.537Z,100934.97
2022-12-24T09:35:32.299Z,100938.00
2022-12-24T09:38:07.871Z,100933.38
2022-12-24T09:40:39.934Z,100934.25
2022-12-24T09:43:17.820Z,100929.63
2022-12-24T09:45:54.183Z,100943.25
2022-12-24T09:48:25.365Z,100935.59
2022-12-24T09:50:55.451Z,100954.13
2022-12-24T09:53:45.874Z,100949.34
2022-12-24T09:56:31.333Z,100967.09
2022-12-24T09:59:02.840Z,100963.97
2022-12-24T10:01:31.378Z,100980.84
2022-12-24T10:04:19.479Z,100964.88
2022-12-24T10:07:11.288Z,100969.03
2022-12-24T10:09:52.956Z,100969.56
2022-12-24T10:12:47.738Z,100963.47
2022-12-24T10:15:22.423Z,100968.53
2022-12-24T10:17:52.311Z,100968.09
2022-12-24T10:20:37.680Z,100966.16
2022-12-24T10:23:11.139Z,100963.41
2022-12-24T10:26:26.300Z,100961.53
2022-12-24T10:29:22.355Z,100967.31
2022-12-24T10:31:58.000Z,100961.06
2022-12-24T10:34:28.920Z,100973.47
2022-12-24T10:36:56.385Z,100967.00
2022-12-24T10:39:25.434Z,100964.19
2022-12-24T10:41:55.325Z,100962.31
2022-12-24T10:44:24.935Z,100962.75
2022-12-24T10:46:51.698Z,100967.75
2022-12-24T10:49:45.169Z,100974.44
2022-12-24T10:52:15.285Z,100965.28
2022-12-24T10:55:11.450Z,100977.78
2022-12-24T10:57:39.080Z,100983.03
2022-12-24T11:00:07.882Z,100989.13
2022-12-24T11:02:37.381Z,100988.06
2022-12-24T11:05:07.773Z,100987.94
2022-12-24T11:07:34.768Z,100990.88
2022-12-24T11:10:05.584Z,100988.09
2022-12-24T11:12:38.227Z,101003.63
2022-12-24T11:15:07.077Z,100992.59
2022-12-24T11:17:34.211Z,100974.78
2022-12-24T11:20:03.488Z,100988.66
2022-12-24T11:22:31.726Z,100984.41
2022-12-24T11:25:00.466Z,100986.84
2022-12-24T11:27:33.724Z,100977.44
2022-12-24T11:30:33.322Z,100988.84
2022-12-24T11:33:00.528Z,100987.41
2022-12-24T11:35:28.924Z,100998.94
2022-12-24T11:38:01.624Z,100990.34
2022-12-24T11:40:40.716Z,100990.00
2022-12-24T11:43:15.920Z,100984.34
2022-12-24T11:45:49.888Z,100988.31
2022-12-24T11:48:33.904Z,100988.75
2022-12-24T11:51:03.112Z,100989.06
2022-12-24T11:53:47.885Z,100986.44
2022-12-24T11:56:33.105Z,100987.91
2022-12-24T11:59:10.422Z,100997.81
2022-12-24T12:01:45.147Z,100995.63
2022-12-24T12:04:22.220Z,101008.00
2022-12-24T12:06:56.355Z,101001.41
2022-12-24T12:09:44.566Z,101007.84
2022-12-24T12:12:19.582Z,101003.13
2022-12-24T12:14:53.659Z,101005.66
2022-12-24T12:17:35.898Z,101000.00
2022-12-24T12:20:14.757Z,101006.41
2022-12-24T12:23:04.142Z,101007.31
2022-12-24T12:25:40.027Z,101012.38
2022-12-24T12:28:22.471Z,101007.50
2022-12-24T12:31:11.915Z,101002.88
2022-12-24T12:34:17.164Z,101000.59
2022-12-24T12:36:53.582Z,101008.66
2022-12-24T12:39:20.412Z,100997.13
2022-12-24T12:42:02.588Z,101014.13
2022-12-24T12:44:45.491Z,101004.75
2022-12-24T12:47:51.362Z,101014.47
2022-12-24T12:50:33.167Z,101010.41
2022-12-24T12:53:15.141Z,101011.00
2022-12-24T12:56:00.695Z,101008.13
2022-12-24T12:58:44.834Z,101001.34
2022-12-24T13:01:32.075Z,101000.66
2022-12-24T13:04:24.613Z,101007.63
2022-12-24T13:07:24.036Z,101015.84
2022-12-24T13:10:20.157Z,101016.06
2022-12-24T13:13:20.433Z,101027.97
2022-12-24T13:16:15.253Z,101020.41
2022-12-24T13:19:11.547Z,101021.50
2022-12-24T13:21:43.181Z,101019.78
2022-12-24T13:24:26.202Z,101026.84
2022-12-24T13:27:07.747Z,101029.13
2022-12-24T13:29:43.671Z,101029.34
2022-12-24T13:32:22.862Z,101031.13
2022-12-24T13:34:56.133Z,101033.84
2022-12-24T13:37:32.418Z,101027.25
2022-12-24T13:40:15.836Z,101016.09
2022-12-24T13:42:59.424Z,101015.59
2022-12-24T13:45:29.069Z,101014.06
2022-12-24T13:48:02.032Z,101009.06
2022-12-24T13:50:50.220Z,101021.88
2022-12-24T13:53:26.595Z,101014.38
2022-12-24T13:55:59.993Z,101014.31
2022-12-24T13:58:28.407Z,101018.03
2022-12-24T14:01:03.232Z,101033.31
2022-12-24T14:03:33.829Z,101036.44
2022-12-24T14:06:13.007Z,101030.59
2022-12-24T14:08:47.032Z,101025.56
2022-12-24T14:11:22.428Z,101031.16
2022-12-24T14:13:49.223Z,101042.88
2022-12-24T14:16:18.936Z,101047.00
2022-12-24T14:18:50.772Z,101043.97
2022-12-24T14:21:22.825Z,101056.44
2022-12-24T14:24:02.959Z,101048.44
2022-12-24T14:26:38.045Z,101050.31
2022-12-24T14:29:12.046Z,101052.97
2022-12-24T14:31:38.910Z,101050.34
2022-12-24T14:34:13.127Z,101042.13
2022-12-24T14:36:43.494Z,101050.28
2022-12-24T14:39:15.198Z,101042.47
2022-12-24T14:41:51.072Z,101057.53
2022-12-24T14:44:35.419Z,101059.81
2022-12-24T14:47:24.577Z,101059.53
2022-12-24T14:50:16.228Z,101068.00
2022-12-24T14:53:06.215Z,101068.09
2022-12-24T14:55:40.803Z,101071.50
2022-12-24T14:58:33.641Z,101077.66
2022-12-24T15:01:04.333Z,101095.03
2022-12-24T15:03:33.207Z,101096.34
2022-12-24T15:06:03.104Z,101084.31
2022-12-24T15:08:38.196Z,101091.63
2022-12-24T15:11:07.970Z,101093.38
2022-12-24T15:13:37.863Z,101092.63
2022-12-24T15:16:15.894Z,101100.16
2022-12-24T15:18:49.444Z,101095.81
2022-12-24T15:21:37.791Z,101084.91
2022-12-24T15:24:04.937Z,101100.31
2022-12-24T15:26:36.601Z,101086.13
2022-12-24T15:29:17.473Z,101090.72
2022-12-24T15:31:44.356Z,101089.59
2022-12-24T15:34:35.331Z,101082.88
2022-12-24T15:37:12.619Z,101086.88
2022-12-24T15:39:40.260Z,101085.41
2022-12-24T15:42:15.119Z,101098.72
2022-12-24T15:44:47.537Z,101084.34
2022-12-24T15:47:18.098Z,101085.81
2022-12-24T15:49:49.034Z,101086.47
2022-12-24T15:52:18.217Z,101090.84
2022-12-24T15:54:52.330Z,101096.16
2022-12-24T15:57:27.119Z,101093.91
2022-12-24T15:59:58.236Z,101102.88
2022-12-24T16:02:25.217Z,101107.03
2022-12-24T16:04:52.553Z,101102.41
2022-12-24T16:07:26.797Z,101106.25
2022-12-24T16:10:13.695Z,101108.50
2022-12-24T16:12:41.031Z,101115.59
2022-12-24T16:15:14.516Z,101113.84
2022-12-24T16:17:41.540Z,101110.13
2022-12-24T16:20:18.121Z,101110.78
2022-12-24T16:22:46.705Z,101125.34
2022-12-24T16:25:28.673Z,101119.28
2022-12-24T16:28:00.117Z,101113.66
2022-12-24T16:30:27.634Z,101109.34
2022-12-24T16:32:54.629Z,101113.13
2022-12-24T16:35:26.962Z,101111.38
2022-12-24T16:37:54.848Z,101111.97
2022-12-24T16:40:26.898Z,101112.59
2022-12-24T16:43:14.601Z,101107.75
2022-12-24T16:45:42.540Z,101100.47
2022-12-24T16:48:11.382Z,101094.50
2022-12-24T16:50:38.159Z,101104.50
2022-12-24T16:53:05.047Z,101095.28
2022-12-24T16:55:32.947Z,101093.22
2022-12-24T16:57:59.947Z,101095.84
2022-12-24T17:00:26.862Z,101085.53
2022-12-24T17:02:54.001Z,101081.81
2022-12-24T17:05:23.785Z,101090.59
2022-12-24T17:07:52.053Z,101087.72
2022-12-24T17:10:18.888Z,101083.44
2022-12-24T17:12:45.756Z,101090.03
2022-12-24T17:15:12.919Z,101090.50
2022-12-24T17:17:39.925Z,101091.72
2022-12-24T17:20:08.103Z,101105.78
2022-12-24T17:22:35.990Z,101116.44
2022-12-24T17:25:03.189Z,101114.56
2022-12-24T17:27:30.086Z,101117.94
2022-12-24T17:29:56.834Z,101119.03
2022-12-24T17:32:25.914Z,101128.59
2022-12-24T17:34:53.053Z,101116.50
2022-12-24T17:37:19.899Z,101116.63
2022-12-24T17:39:47.110Z,101115.69
2022-12-24T17:42:14.091Z,101103.22
2022-12-24T17:44:40.819Z,101109.81
2022-12-24T17:47:07.606Z,101101.28
2022-12-24T17:49:34.960Z,101094.75
2022-12-24T17:52:01.919Z,101094.28
2022-12-24T17:54:31.695Z,101103.22
2022-12-24T17:57:01.840Z,101099.56
2022-12-24T17:59:28.863Z,101098.13
2022-12-24T18:01:55.662Z,101090.09
2022-12-24T18:04:22.728Z,101089.47
2022-12-24T18:06:50.001Z,101092.88
2022-12-24T18:09:17.136Z,101085.97
2022-12-24T18:11:44.258Z,101103.38
2022-12-24T18:14:14.127Z,101097.16
2022-12-24T18:16:41.583Z,101085.31
2022-12-24T18:19:10.925Z,101092.22
2022-12-24T18:21:37.751Z,101095.25
2022-12-24T18:24:05.629Z,101097.16
2022-12-24T18:26:33.479Z,101096.47
2022-12-24T18:29:01.557Z,101100.00
2022-12-24T18:31:29.881Z,101094.13
2022-12-24T18:33:57.555Z,101094.25
2022-12-24T18:36:24.946Z,101096.25
2022-12-24T18:38:52.210Z,101096.69
2022-12-24T18:41:22.421Z,101097.19
2022-12-24T18:43:49.856Z,101089.84
2022-12-24T18:46:19.351Z,101101.34
2022-12-24T18:48:47.014Z,101103.75
2022-12-24T18:51:17.938Z,101099.41
2022-12-24T18:53:45.392Z,101100.88
2022-12-24T18:56:26.742Z,101099.75
2022-12-24T18:58:56.273Z,101097.78
2022-12-24T19:01:25.784Z,101099.22
2022-12-24T19:03:53.483Z,101108.88
2022-12-24T19:06:21.486Z,101106.59
2022-12-24T19:08:57.845Z,101101.16
2022-12-24T19:11:27.641Z,101100.69
2022-12-24T19:13:54.867Z,101112.38
2022-12-24T19:16:22.164Z,101121.34
2022-12-24T19:18:49.236Z,101116.22
2022-12-24T19:21:17.990Z,101112.06
2022-12-24T19:23:48.082Z,101117.47
2022-12-24T19:26:16.397Z,101121.81
2022-12-24T19:28:43.716Z,101104.72
2022-12-24T19:31:19.072Z,101099.72
2022-12-24T19:33:48.654Z,101113.00
2022-12-24T19:36:18.685Z,101125.34
2022-12-24T19:38:46.049Z,101127.53
2022-12-24T19:41:15.629Z,101130.44
2022-12-24T19:43:47.780Z,101107.91
2022-12-24T19:46:17.729Z,101111.59
2022-12-24T19:48:49.321Z,101106.31
2022-12-24T19:51:16.507Z,101121.50
2022-12-24T19:53:43.298Z,101107.56
2022-12-24T19:56:10.797Z,101103.38
2022-12-24T19:58:37.594Z,101116.34
2022-12-24T20:01:18.932Z,101127.75
2022-12-24T20:03:47.050Z,101112.84
2022-12-24T20:06:15.471Z,101107.06
2022-12-24T20:08:42.611Z,101109.34
2022-12-24T20:11:13.063Z,101103.41
2022-12-24T20:13:41.013Z,101099.72
2022-12-24T20:16:13.691Z,101109.31
2022-12-24T20:18:40.606Z,101115.56
2022-12-24T20:21:10.285Z,101114.44
2022-12-24T20:23:38.932Z,101127.41
2022-12-24T20:26:06.738Z,101140.03
2022-12-24T20:28:35.801Z,101126.59
2022-12-24T20:31:10.303Z,101113.50
2022-12-24T20:33:37.212Z,101109.94
2022-12-24T20:36:04.523Z,101109.81
2022-12-24T20:38:31.409Z,101116.66
2022-12-24T20:40:58.573Z,101109.16
2022-12-24T20:43:28.302Z,101102.47
2022-12-24T20:45:59.289Z,101113.03
2022-12-24T20:48:26.100Z,101115.09
2022-12-24T20:50:52.833Z,101110.63
2022-12-24T20:53:19.755Z,101113.97
2022-12-24T20:55:48.027Z,101113.50
2022-12-24T20:58:18.087Z,101113.84
2022-12-24T21:00:46.419Z,101116.19
2022-12-24T21:03:15.162Z,101120.22
2022-12-24T21:05:42.489Z,101113.97
2022-12-24T21:08:10.697Z,101122.59
2022-12-24T21:10:37.875Z,101125.16
2022-12-24T21:13:05.965Z,101126.91
2022-12-24T21:15:36.281Z,101130.44
2022-12-24T21:18:10.097Z,101115.09
2022-12-24T21:20:38.692Z,101120.22
2022-12-24T21:23:05.902Z,101117.50
2022-12-24T21:25:33.012Z,101129.00
2022-12-24T21:27:59.830Z,101118.44
2022-12-24T21:30:26.561Z,101121.78
2022-12-24T21:32:53.405Z,101107.56
2022-12-24T21:35:20.343Z,101116.03
2022-12-24T21:37:47.107Z,101103.75
2022-12-24T21:40:13.856Z,101097.38
2022-12-24T21:42:40.854Z,101097.97
2022-12-24T21:45:08.265Z,101092.56
2022-12-24T21:47:35.541Z,101084.75
2022-12-24T21:50:21.451Z,101083.94
2022-12-24T21:53:08.477Z,101083.94
2022-12-24T21:55:35.361Z,101093.00
2022-12-24T21:58:02.216Z,101091.28
2022-12-24T22:00:30.712Z,101078.34
2022-12-24T22:02:58.915Z,101072.28
2022-12-24T22:05:26.507Z,101086.91
2022-12-24T22:08:13.211Z,101074.66
2022-12-24T22:10:59.018Z,101071.31
2022-12-24T22:13:26.209Z,101073.88
2022-12-24T22:15:54.269Z,101074.66
2022-12-24T22:18:23.523Z,101071.78
2022-12-24T22:20:51.191Z,101067.63
2022-12-24T22:23:19.379Z,101057.06
2022-12-24T22:25:46.533Z,101065.09
2022-12-24T22:28:13.659Z,101057.06
2022-12-24T22:30:42.431Z,101044.28
2022-12-24T22:33:10.501Z,101040.00
2022-12-24T22:35:39.386Z,101044.31
2022-12-24T22:38:08.003Z,101050.53
2022-12-24T22:40:34.749Z,101042.22
2022-12-24T22:43:01.551Z,101045.56
2022-12-24T22:45:28.350Z,101046.84
2022-12-24T22:47:55.080Z,101041.75
2022-12-24T22:50:22.101Z,101036.47
2022-12-24T22:52:49.089Z,101039.13
2022-12-24T22:55:15.891Z,101039.50
2022-12-24T22:57:42.622Z,101040.94
2022-12-24T23:00:17.223Z,101050.06
2022-12-24T23:02:44.279Z,101048.31
2022-12-24T23:05:15.101Z,101057.75
2022-12-24T23:07:41.907Z,101056.28
2022-12-24T23:10:11.959Z,101064.44
2022-12-24T23:12:57.689Z,101068.59
2022-12-24T23:15:24.580Z,101060.13
2022-12-24T23:17:51.458Z,101068.91
2022-12-24T23:20:18.454Z,101074.66
2022-12-24T23:22:45.281Z,101068.13
2022-12-24T23:25:12.135Z,101079.59
2022-12-24T23:27:39.397Z,101070.81
2022-12-24T23:30:07.604Z,101067.47
2022-12-24T23:32:34.282Z,101059.31
2022-12-24T23:35:01.253Z,101073.50
2022-12-24T23:37:34.725Z,101069.84
2022-12-24T23:40:02.575Z,101070.16
2022-12-24T23:42:29.761Z,101067.31
2022-12-24T23:44:56.632Z,101075.16
2022-12-24T23:47:23.359Z,101071.78
2022-12-24T23:49:57.681Z,101069.84
2022-12-24T23:52:24.460Z,101073.50
2022-12-24T23:54:51.347Z,101074.34
2022-12-24T23:57:18.494Z,101064.41
2022-12-24T23:59:45.341Z,101057.97
